sensor_id;sensor_type;location;lat;lon;timestamp;pressure;altitude;pressure_sealevel;temperature;humidity
43298;BME280;28892;55.640;37.532;2023-01-27T00:00:25;98997.84;;;-1.83;66.81
43298;BME280;28892;55.640;37.532;2023-01-27T00:02:51;98991.59;;;-1.80;67.43
43298;BME280;28892;55.640;37.532;2023-01-27T00:05:17;98983.97;;;-2.21;67.92
43298;BME280;28892;55.640;37.532;2023-01-27T00:07:42;98983.47;;;-2.26;68.78
43298;BME280;28892;55.640;37.532;2023-01-27T00:10:16;98988.34;;;-2.86;70.70
43298;BME280;28892;55.640;37.532;2023-01-27T00:12:43;98982.63;;;-2.27;69.52
43298;BME280;28892;55.640;37.532;2023-01-27T00:15:28;98999.59;;;-2.47;69.53
43298;BME280;28892;55.640;37.532;2023-01-27T00:17:54;98995.41;;;-2.11;68.62
43298;BME280;28892;55.640;37.532;2023-01-27T00:20:20;98996.50;;;-1.89;67.74
43298;BME280;28892;55.640;37.532;2023-01-27T00:23:22;98993.59;;;-1.60;67.22
43298;BME280;28892;55.640;37.532;2023-01-27T00:26:32;98999.94;;;-1.27;66.43
43298;BME280;28892;55.640;37.532;2023-01-27T00:28:58;98994.09;;;-1.30;65.84
43298;BME280;28892;55.640;37.532;2023-01-27T00:31:24;98991.56;;;-1.43;65.52
43298;BME280;28892;55.640;37.532;2023-01-27T00:34:08;98988.25;;;-1.45;65.96
43298;BME280;28892;55.640;37.532;2023-01-27T00:36:38;98993.06;;;-1.28;65.79
43298;BME280;28892;55.640;37.532;2023-01-27T00:39:05;98994.53;;;-1.12;65.01
43298;BME280;28892;55.640;37.532;2023-01-27T00:41:31;98992.72;;;-1.47;65.64
43298;BME280;28892;55.640;37.532;2023-01-27T00:43:58;98996.44;;;-1.38;65.63
43298;BME280;28892;55.640;37.532;2023-01-27T00:46:24;98997.09;;;-1.48;66.01
43298;BME280;28892;55.640;37.532;2023-01-27T00:48:50;98990.28;;;-1.62;66.41
43298;BME280;28892;55.640;37.532;2023-01-27T00:51:17;98994.41;;;-1.84;67.02
43298;BME280;28892;55.640;37.532;2023-01-27T00:53:43;98995.94;;;-2.31;68.61
43298;BME280;28892;55.640;37.532;2023-01-27T00:56:10;98988.84;;;-2.03;68.41
43298;BME280;28892;55.640;37.532;2023-01-27T00:58:36;98988.97;;;-2.44;69.31
43298;BME280;28892;55.640;37.532;2023-01-27T01:01:05;98976.28;;;-2.22;69.40
43298;BME280;28892;55.640;37.532;2023-01-27T01:03:33;98984.84;;;-1.83;68.27
43298;BME280;28892;55.640;37.532;2023-01-27T01:06:01;98972.81;;;-1.60;67.49
43298;BME280;28892;55.640;37.532;2023-01-27T01:08:33;98971.25;;;-1.38;66.64
43298;BME280;28892;55.640;37.532;2023-01-27T01:11:03;98966.09;;;-2.13;68.19
43298;BME280;28892;55.640;37.532;2023-01-27T01:13:29;98959.69;;;-2.33;69.40
43298;BME280;28892;55.640;37.532;2023-01-27T01:15:55;98963.81;;;-2.17;69.23
43298;BME280;28892;55.640;37.532;2023-01-27T01:18:22;98966.81;;;-2.11;69.29
43298;BME280;28892;55.640;37.532;2023-01-27T01:20:48;98969.13;;;-2.58;70.79
43298;BME280;28892;55.640;37.532;2023-01-27T01:23:14;98964.34;;;-2.51;70.76
43298;BME280;28892;55.640;37.532;2023-01-27T01:25:40;98964.75;;;-2.31;70.38
43298;BME280;28892;55.640;37.532;2023-01-27T01:28:07;98971.78;;;-2.07;69.46
43298;BME280;28892;55.640;37.532;2023-01-27T01:30:36;98956.50;;;-2.12;69.64
43298;BME280;28892;55.640;37.532;2023-01-27T01:33:04;98965.81;;;-1.84;68.10
43298;BME280;28892;55.640;37.532;2023-01-27T01:35:30;98966.25;;;-1.90;67.80
43298;BME280;28892;55.640;37.532;2023-01-27T01:37:56;98965.84;;;-1.97;67.77
43298;BME280;28892;55.640;37.532;2023-01-27T01:40:22;98966.84;;;-1.86;68.27
43298;BME280;28892;55.640;37.532;2023-01-27T01:47:57;98967.22;;;-1.66;67.14
43298;BME280;28892;55.640;37.532;2023-01-27T01:50:27;98962.00;;;-1.66;67.04
43298;BME280;28892;55.640;37.532;2023-01-27T01:52:53;98966.44;;;-1.56;66.41
43298;BME280;28892;55.640;37.532;2023-01-27T01:55:21;98973.06;;;-2.26;67.81
43298;BME280;28892;55.640;37.532;2023-01-27T01:57:47;98958.56;;;-2.68;69.91
43298;BME280;28892;55.640;37.532;2023-01-27T02:00:14;98963.31;;;-2.48;69.38
43298;BME280;28892;55.640;37.532;2023-01-27T02:02:40;98963.50;;;-2.39;68.40
43298;BME280;28892;55.640;37.532;2023-01-27T02:05:16;98968.06;;;-3.07;70.82
43298;BME280;28892;55.640;37.532;2023-01-27T02:07:48;98952.09;;;-2.88;70.86
43298;BME280;28892;55.640;37.532;2023-01-27T02:10:21;98956.16;;;-2.71;69.73
43298;BME280;28892;55.640;37.532;2023-01-27T02:12:47;98961.53;;;-2.35;69.33
43298;BME280;28892;55.640;37.532;2023-01-27T02:15:13;98949.56;;;-2.12;68.96
43298;BME280;28892;55.640;37.532;2023-01-27T02:17:39;98953.25;;;-1.90;67.62
43298;BME280;28892;55.640;37.532;2023-01-27T02:22:48;98947.00;;;-2.37;67.92
43298;BME280;28892;55.640;37.532;2023-01-27T02:28:02;98940.50;;;-2.19;68.11
43298;BME280;28892;55.640;37.532;2023-01-27T02:30:28;98944.81;;;-1.93;67.40
43298;BME280;28892;55.640;37.532;2023-01-27T02:32:54;98943.63;;;-1.76;66.41
43298;BME280;28892;55.640;37.532;2023-01-27T02:35:32;98943.28;;;-1.72;65.76
43298;BME280;28892;55.640;37.532;2023-01-27T02:38:00;98943.47;;;-1.62;65.69
43298;BME280;28892;55.640;37.532;2023-01-27T02:40:26;98943.53;;;-1.50;65.21
43298;BME280;28892;55.640;37.532;2023-01-27T02:42:56;98945.22;;;-1.38;65.07
43298;BME280;28892;55.640;37.532;2023-01-27T02:45:22;98944.38;;;-1.38;64.63
43298;BME280;28892;55.640;37.532;2023-01-27T02:47:48;98943.09;;;-1.33;64.60
43298;BME280;28892;55.640;37.532;2023-01-27T02:50:14;98939.50;;;-1.19;64.01
43298;BME280;28892;55.640;37.532;2023-01-27T02:52:40;98936.59;;;-1.63;64.04
43298;BME280;28892;55.640;37.532;2023-01-27T02:55:06;98929.09;;;-2.29;66.60
43298;BME280;28892;55.640;37.532;2023-01-27T02:57:32;98934.97;;;-2.01;66.59
43298;BME280;28892;55.640;37.532;2023-01-27T03:00:18;98931.59;;;-1.90;66.04
43298;BME280;28892;55.640;37.532;2023-01-27T03:02:43;98941.34;;;-1.81;65.73
43298;BME280;28892;55.640;37.532;2023-01-27T03:05:09;98929.31;;;-2.19;65.59
43298;BME280;28892;55.640;37.532;2023-01-27T03:07:35;98934.13;;;-2.39;67.16
43298;BME280;28892;55.640;37.532;2023-01-27T03:10:01;98930.19;;;-2.07;66.40
43298;BME280;28892;55.640;37.532;2023-01-27T03:12:29;98934.19;;;-1.90;66.09
43298;BME280;28892;55.640;37.532;2023-01-27T03:14:54;98935.59;;;-1.98;65.92
43298;BME280;28892;55.640;37.532;2023-01-27T03:17:42;98947.63;;;-2.47;66.66
43298;BME280;28892;55.640;37.532;2023-01-27T03:20:26;98941.78;;;-2.25;66.52
43298;BME280;28892;55.640;37.532;2023-01-27T03:22:52;98946.94;;;-2.12;66.28
43298;BME280;28892;55.640;37.532;2023-01-27T03:25:20;98957.00;;;-1.94;65.92
43298;BME280;28892;55.640;37.532;2023-01-27T03:27:46;98943.63;;;-1.76;65.27
43298;BME280;28892;55.640;37.532;2023-01-27T03:30:24;98941.00;;;-1.76;64.98
43298;BME280;28892;55.640;37.532;2023-01-27T03:33:04;98939.81;;;-1.84;65.11
43298;BME280;28892;55.640;37.532;2023-01-27T03:36:00;98945.66;;;-1.69;65.14
43298;BME280;28892;55.640;37.532;2023-01-27T03:38:48;98942.16;;;-2.18;65.38
43298;BME280;28892;55.640;37.532;2023-01-27T03:41:33;98938.28;;;-2.36;65.64
43298;BME280;28892;55.640;37.532;2023-01-27T03:44:19;98934.66;;;-1.97;65.32
43298;BME280;28892;55.640;37.532;2023-01-27T03:47:03;98933.16;;;-1.88;64.80
43298;BME280;28892;55.640;37.532;2023-01-27T03:49:29;98937.53;;;-1.88;64.12
43298;BME280;28892;55.640;37.532;2023-01-27T03:51:55;98929.00;;;-1.90;64.59
43298;BME280;28892;55.640;37.532;2023-01-27T03:54:21;98933.38;;;-1.91;64.49
43298;BME280;28892;55.640;37.532;2023-01-27T03:56:47;98936.16;;;-2.31;65.05
43298;BME280;28892;55.640;37.532;2023-01-27T03:59:13;98941.03;;;-2.14;65.52
43298;BME280;28892;55.640;37.532;2023-01-27T04:01:39;98946.56;;;-2.44;65.45
43298;BME280;28892;55.640;37.532;2023-01-27T04:04:05;98954.03;;;-2.14;65.83
43298;BME280;28892;55.640;37.532;2023-01-27T04:06:49;98946.38;;;-1.91;65.14
43298;BME280;28892;55.640;37.532;2023-01-27T04:11:55;98949.69;;;-1.51;64.00
43298;BME280;28892;55.640;37.532;2023-01-27T04:14:25;98953.47;;;-1.44;63.13
43298;BME280;28892;55.640;37.532;2023-01-27T04:16:53;98945.06;;;-2.09;64.09
43298;BME280;28892;55.640;37.532;2023-01-27T04:19:20;98958.44;;;-1.90;64.29
43298;BME280;28892;55.640;37.532;2023-01-27T04:21:46;98936.75;;;-1.77;63.93
43298;BME280;28892;55.640;37.532;2023-01-27T04:24:15;98959.47;;;-1.55;63.89
43298;BME280;28892;55.640;37.532;2023-01-27T04:26:43;98951.53;;;-1.53;63.61
43298;BME280;28892;55.640;37.532;2023-01-27T04:29:11;98956.19;;;-1.46;63.06
43298;BME280;28892;55.640;37.532;2023-01-27T04:31:39;98950.00;;;-1.80;63.19
43298;BME280;28892;55.640;37.532;2023-01-27T04:34:09;98954.34;;;-1.81;63.39
43298;BME280;28892;55.640;37.532;2023-01-27T04:36:35;98960.00;;;-2.50;64.64
43298;BME280;28892;55.640;37.532;2023-01-27T04:39:01;98956.88;;;-2.56;65.99
43298;BME280;28892;55.640;37.532;2023-01-27T04:41:27;98958.44;;;-2.40;65.78
43298;BME280;28892;55.640;37.532;2023-01-27T04:43:56;98960.88;;;-2.13;65.49
43298;BME280;28892;55.640;37.532;2023-01-27T04:46:21;98947.75;;;-1.98;64.69
43298;BME280;28892;55.640;37.532;2023-01-27T04:48:49;98967.41;;;-1.70;64.44
43298;BME280;28892;55.640;37.532;2023-01-27T04:51:15;98967.59;;;-1.60;63.96
43298;BME280;28892;55.640;37.532;2023-01-27T04:53:41;98960.75;;;-1.61;63.43
43298;BME280;28892;55.640;37.532;2023-01-27T04:56:38;98969.47;;;-1.37;63.62
43298;BME280;28892;55.640;37.532;2023-01-27T04:59:06;98975.59;;;-1.38;63.55
43298;BME280;28892;55.640;37.532;2023-01-27T05:01:33;98966.44;;;-1.31;62.80
43298;BME280;28892;55.640;37.532;2023-01-27T05:04:01;98977.22;;;-1.24;62.97
43298;BME280;28892;55.640;37.532;2023-01-27T05:06:27;98974.34;;;-1.33;62.39
43298;BME280;28892;55.640;37.532;2023-01-27T05:08:53;98974.44;;;-1.83;63.81
43298;BME280;28892;55.640;37.532;2023-01-27T05:11:19;98973.22;;;-1.66;64.00
43298;BME280;28892;55.640;37.532;2023-01-27T05:13:45;98970.25;;;-1.48;63.64
43298;BME280;28892;55.640;37.532;2023-01-27T05:18:42;98975.69;;;-1.51;63.01
43298;BME280;28892;55.640;37.532;2023-01-27T05:21:11;98978.34;;;-1.40;63.27
43298;BME280;28892;55.640;37.532;2023-01-27T05:23:37;98987.16;;;-1.30;63.08
43298;BME280;28892;55.640;37.532;2023-01-27T05:26:08;98981.94;;;-1.30;62.88
43298;BME280;28892;55.640;37.532;2023-01-27T05:28:36;98974.50;;;-1.47;62.93
43298;BME280;28892;55.640;37.532;2023-01-27T05:31:23;98982.78;;;-1.18;63.35
43298;BME280;28892;55.640;37.532;2023-01-27T05:33:54;98978.50;;;-1.30;62.86
43298;BME280;28892;55.640;37.532;2023-01-27T05:36:22;98987.72;;;-1.26;62.80
43298;BME280;28892;55.640;37.532;2023-01-27T05:38:49;99007.78;;;-1.39;62.60
43298;BME280;28892;55.640;37.532;2023-01-27T05:41:35;98986.97;;;-1.39;63.60
43298;BME280;28892;55.640;37.532;2023-01-27T05:44:02;98994.25;;;-1.69;63.55
43298;BME280;28892;55.640;37.532;2023-01-27T05:46:30;98994.25;;;-1.69;64.02
43298;BME280;28892;55.640;37.532;2023-01-27T05:49:00;99009.59;;;-1.53;63.96
43298;BME280;28892;55.640;37.532;2023-01-27T05:51:39;98999.50;;;-1.45;64.19
43298;BME280;28892;55.640;37.532;2023-01-27T05:54:08;99000.25;;;-1.31;63.42
43298;BME280;28892;55.640;37.532;2023-01-27T05:56:34;99003.81;;;-1.70;63.58
43298;BME280;28892;55.640;37.532;2023-01-27T05:59:00;99001.19;;;-1.57;64.02
43298;BME280;28892;55.640;37.532;2023-01-27T06:01:30;99011.50;;;-1.55;63.84
43298;BME280;28892;55.640;37.532;2023-01-27T06:03:57;99018.69;;;-1.59;64.22
43298;BME280;28892;55.640;37.532;2023-01-27T06:06:25;99020.00;;;-1.53;64.00
43298;BME280;28892;55.640;37.532;2023-01-27T06:08:51;99010.13;;;-1.85;64.78
43298;BME280;28892;55.640;37.532;2023-01-27T06:11:20;99006.31;;;-1.68;64.23
43298;BME280;28892;55.640;37.532;2023-01-27T06:13:47;99018.97;;;-1.50;64.11
43298;BME280;28892;55.640;37.532;2023-01-27T06:16:14;99001.53;;;-1.37;63.63
43298;BME280;28892;55.640;37.532;2023-01-27T06:18:44;99011.84;;;-1.35;63.41
43298;BME280;28892;55.640;37.532;2023-01-27T06:21:11;99005.69;;;-1.34;63.58
43298;BME280;28892;55.640;37.532;2023-01-27T06:23:38;99014.03;;;-1.18;63.44
43298;BME280;28892;55.640;37.532;2023-01-27T06:26:09;99022.53;;;-1.64;64.11
43298;BME280;28892;55.640;37.532;2023-01-27T06:28:37;99016.81;;;-1.70;64.42
43298;BME280;28892;55.640;37.532;2023-01-27T06:31:21;99007.75;;;-1.88;64.36
43298;BME280;28892;55.640;37.532;2023-01-27T06:33:47;98999.56;;;-2.21;65.28
43298;BME280;28892;55.640;37.532;2023-01-27T06:36:16;99011.66;;;-2.33;66.44
43298;BME280;28892;55.640;37.532;2023-01-27T06:38:42;99013.03;;;-1.90;65.37
43298;BME280;28892;55.640;37.532;2023-01-27T06:41:17;99000.50;;;-1.72;65.33
43298;BME280;28892;55.640;37.532;2023-01-27T06:43:43;99008.44;;;-1.73;64.43
43298;BME280;28892;55.640;37.532;2023-01-27T06:46:09;99014.47;;;-1.86;64.76
43298;BME280;28892;55.640;37.532;2023-01-27T06:48:35;99004.19;;;-1.87;64.59
43298;BME280;28892;55.640;37.532;2023-01-27T06:51:02;99023.66;;;-1.56;64.46
43298;BME280;28892;55.640;37.532;2023-01-27T06:53:28;99016.19;;;-1.60;63.98
43298;BME280;28892;55.640;37.532;2023-01-27T06:55:55;99024.44;;;-1.42;63.95
43298;BME280;28892;55.640;37.532;2023-01-27T06:58:21;99010.91;;;-1.34;63.38
43298;BME280;28892;55.640;37.532;2023-01-27T07:00:51;99016.25;;;-1.24;63.34
43298;BME280;28892;55.640;37.532;2023-01-27T07:03:18;99017.25;;;-1.38;62.80
43298;BME280;28892;55.640;37.532;2023-01-27T07:05:43;99024.72;;;-1.34;63.32
43298;BME280;28892;55.640;37.532;2023-01-27T07:08:09;99029.97;;;-1.22;62.97
43298;BME280;28892;55.640;37.532;2023-01-27T07:10:37;99026.31;;;-0.95;62.74
43298;BME280;28892;55.640;37.532;2023-01-27T07:15:31;99028.75;;;-1.05;62.39
43298;BME280;28892;55.640;37.532;2023-01-27T07:17:58;99030.38;;;-1.40;62.96
43298;BME280;28892;55.640;37.532;2023-01-27T07:20:24;99041.22;;;-1.46;62.73
43298;BME280;28892;55.640;37.532;2023-01-27T07:23:00;99025.09;;;-1.27;63.19
43298;BME280;28892;55.640;37.532;2023-01-27T07:25:27;99035.19;;;-1.22;62.90
43298;BME280;28892;55.640;37.532;2023-01-27T07:27:56;99038.16;;;-1.16;62.58
43298;BME280;28892;55.640;37.532;2023-01-27T07:30:22;99033.34;;;-1.09;62.86
43298;BME280;28892;55.640;37.532;2023-01-27T07:32:48;99033.91;;;-0.92;62.47
43298;BME280;28892;55.640;37.532;2023-01-27T07:35:18;99031.94;;;-0.77;62.16
43298;BME280;28892;55.640;37.532;2023-01-27T07:37:43;99044.59;;;-0.84;61.68
43298;BME280;28892;55.640;37.532;2023-01-27T07:40:10;99034.59;;;-0.90;61.83
43298;BME280;28892;55.640;37.532;2023-01-27T07:42:39;99037.59;;;-0.83;61.87
43298;BME280;28892;55.640;37.532;2023-01-27T07:45:05;99045.41;;;-0.83;61.59
43298;BME280;28892;55.640;37.532;2023-01-27T07:47:31;99049.13;;;-0.75;61.50
43298;BME280;28892;55.640;37.532;2023-01-27T07:50:03;99043.47;;;-0.57;61.70
43298;BME280;28892;55.640;37.532;2023-01-27T07:52:38;99057.22;;;-0.44;61.74
43298;BME280;28892;55.640;37.532;2023-01-27T07:55:04;99057.13;;;-0.42;61.46
43298;BME280;28892;55.640;37.532;2023-01-27T07:57:36;99061.28;;;-0.39;60.93
43298;BME280;28892;55.640;37.532;2023-01-27T08:00:08;99067.41;;;-0.88;60.77
43298;BME280;28892;55.640;37.532;2023-01-27T08:02:43;99062.44;;;-1.52;63.29
43298;BME280;28892;55.640;37.532;2023-01-27T08:05:14;99065.56;;;-1.47;63.27
43298;BME280;28892;55.640;37.532;2023-01-27T08:07:40;99063.00;;;-1.23;63.24
43298;BME280;28892;55.640;37.532;2023-01-27T08:10:10;99052.13;;;-0.92;62.89
43298;BME280;28892;55.640;37.532;2023-01-27T08:12:36;99050.81;;;-0.98;62.16
43298;BME280;28892;55.640;37.532;2023-01-27T08:15:02;99060.06;;;-0.82;62.15
43298;BME280;28892;55.640;37.532;2023-01-27T08:17:29;99061.53;;;-0.78;62.34
43298;BME280;28892;55.640;37.532;2023-01-27T08:19:55;99069.53;;;-0.57;61.83
43298;BME280;28892;55.640;37.532;2023-01-27T08:22:21;99061.25;;;-0.87;61.78
43298;BME280;28892;55.640;37.532;2023-01-27T08:24:48;99056.53;;;-0.81;61.96
43298;BME280;28892;55.640;37.532;2023-01-27T08:27:14;99071.78;;;-0.88;61.73
43298;BME280;28892;55.640;37.532;2023-01-27T08:29:41;99077.88;;;-0.76;62.23
43298;BME280;28892;55.640;37.532;2023-01-27T08:32:09;99078.97;;;-0.67;61.95
43298;BME280;28892;55.640;37.532;2023-01-27T08:34:36;99069.41;;;-0.55;61.71
43298;BME280;28892;55.640;37.532;2023-01-27T08:37:02;99075.31;;;-0.89;61.30
43298;BME280;28892;55.640;37.532;2023-01-27T08:39:28;99068.75;;;-0.82;62.09
43298;BME280;28892;55.640;37.532;2023-01-27T08:41:54;99075.66;;;-0.69;62.27
43298;BME280;28892;55.640;37.532;2023-01-27T08:44:20;99059.38;;;-0.49;61.58
43298;BME280;28892;55.640;37.532;2023-01-27T08:46:45;99063.28;;;-0.43;61.44
43298;BME280;28892;55.640;37.532;2023-01-27T08:49:11;99060.22;;;-0.37;61.28
43298;BME280;28892;55.640;37.532;2023-01-27T08:51:40;99066.78;;;-0.20;62.02
43298;BME280;28892;55.640;37.532;2023-01-27T08:54:08;99071.41;;;-0.12;61.57
43298;BME280;28892;55.640;37.532;2023-01-27T08:56:34;99072.44;;;-0.26;61.09
43298;BME280;28892;55.640;37.532;2023-01-27T08:59:00;99068.41;;;-0.30;61.76
43298;BME280;28892;55.640;37.532;2023-01-27T09:01:28;99066.16;;;-0.35;61.62
43298;BME280;28892;55.640;37.532;2023-01-27T09:03:54;99071.72;;;-0.75;62.69
43298;BME280;28892;55.640;37.532;2023-01-27T09:06:20;99084.56;;;-0.96;62.16
43298;BME280;28892;55.640;37.532;2023-01-27T09:08:46;99068.75;;;-1.06;63.40
43298;BME280;28892;55.640;37.532;2023-01-27T09:11:36;99070.59;;;-0.95;63.38
43298;BME280;28892;55.640;37.532;2023-01-27T09:14:03;99068.75;;;-1.06;63.38
43298;BME280;28892;55.640;37.532;2023-01-27T09:16:29;99064.47;;;-0.83;63.56
43298;BME280;28892;55.640;37.532;2023-01-27T09:18:54;99071.78;;;-0.52;63.29
43298;BME280;28892;55.640;37.532;2023-01-27T09:21:22;99073.97;;;-0.35;62.23
43298;BME280;28892;55.640;37.532;2023-01-27T09:23:48;99064.72;;;-0.28;62.05
43298;BME280;28892;55.640;37.532;2023-01-27T09:26:14;99071.47;;;-0.36;62.13
43298;BME280;28892;55.640;37.532;2023-01-27T09:28:40;99063.91;;;-0.17;61.21
43298;BME280;28892;55.640;37.532;2023-01-27T09:31:06;99067.22;;;-0.15;61.33
43298;BME280;28892;55.640;37.532;2023-01-27T09:33:34;99067.00;;;-0.11;61.58
43298;BME280;28892;55.640;37.532;2023-01-27T09:36:07;99064.63;;;-0.03;61.57
43298;BME280;28892;55.640;37.532;2023-01-27T09:38:38;99072.44;;;-0.26;61.25
43298;BME280;28892;55.640;37.532;2023-01-27T09:49:43;99078.69;;;-0.29;62.27
43298;BME280;28892;55.640;37.532;2023-01-27T09:55:23;99082.16;;;-0.17;61.27
43298;BME280;28892;55.640;37.532;2023-01-27T10:03:33;99056.78;;;0.31;61.99
43298;BME280;28892;55.640;37.532;2023-01-27T10:22:48;99068.19;;;0.30;61.78
43298;BME280;28892;55.640;37.532;2023-01-27T10:27:55;99069.28;;;0.27;61.47
43298;BME280;28892;55.640;37.532;2023-01-27T10:30:26;99063.56;;;0.34;61.38
43298;BME280;28892;55.640;37.532;2023-01-27T10:35:49;99070.03;;;0.62;61.34
43298;BME280;28892;55.640;37.532;2023-01-27T10:38:24;99067.47;;;0.51;61.09
43298;BME280;28892;55.640;37.532;2023-01-27T10:49:06;99082.03;;;0.65;60.47
43298;BME280;28892;55.640;37.532;2023-01-27T10:51:43;99066.75;;;0.49;60.53
43298;BME280;28892;55.640;37.532;2023-01-27T10:54:31;99069.28;;;0.39;60.90
43298;BME280;28892;55.640;37.532;2023-01-27T10:57:28;99076.75;;;0.44;60.87
43298;BME280;28892;55.640;37.532;2023-01-27T11:05:30;99081.59;;;0.60;61.20
43298;BME280;28892;55.640;37.532;2023-01-27T11:08:11;99089.75;;;0.66;61.03
43298;BME280;28892;55.640;37.532;2023-01-27T11:10:44;99075.19;;;0.52;61.73
43298;BME280;28892;55.640;37.532;2023-01-27T11:13:31;99088.09;;;0.65;61.82
43298;BME280;28892;55.640;37.532;2023-01-27T11:15:59;99084.31;;;0.47;61.86
43298;BME280;28892;55.640;37.532;2023-01-27T11:18:27;99094.25;;;0.53;61.62
43298;BME280;28892;55.640;37.532;2023-01-27T11:20:57;99086.47;;;0.19;61.72
43298;BME280;28892;55.640;37.532;2023-01-27T11:23:30;99074.72;;;0.02;63.12
43298;BME280;28892;55.640;37.532;2023-01-27T11:29:25;99082.44;;;-0.08;64.09
43298;BME280;28892;55.640;37.532;2023-01-27T11:37:38;99073.75;;;0.37;62.12
43298;BME280;28892;55.640;37.532;2023-01-27T11:40:42;99086.94;;;0.47;61.92
43298;BME280;28892;55.640;37.532;2023-01-27T11:43:15;99077.22;;;0.37;62.02
43298;BME280;28892;55.640;37.532;2023-01-27T11:45:43;99075.66;;;0.01;61.65
43298;BME280;28892;55.640;37.532;2023-01-27T11:48:20;99086.63;;;-0.41;64.54
43298;BME280;28892;55.640;37.532;2023-01-27T11:50:46;99079.53;;;-0.39;64.36
43298;BME280;28892;55.640;37.532;2023-01-27T11:53:24;99069.25;;;-0.18;64.26
43298;BME280;28892;55.640;37.532;2023-01-27T11:55:57;99080.84;;;-0.69;64.48
43298;BME280;28892;55.640;37.532;2023-01-27T12:00:59;99088.56;;;-0.32;64.66
43298;BME280;28892;55.640;37.532;2023-01-27T12:09:37;99097.13;;;0.27;63.23
43298;BME280;28892;55.640;37.532;2023-01-27T12:12:20;99099.16;;;0.23;62.74
43298;BME280;28892;55.640;37.532;2023-01-27T12:14:54;99100.78;;;-0.10;62.86
43298;BME280;28892;55.640;37.532;2023-01-27T12:17:34;99103.06;;;0.06;63.65
43298;BME280;28892;55.640;37.532;2023-01-27T12:20:22;99094.97;;;0.32;63.39
43298;BME280;28892;55.640;37.532;2023-01-27T12:22:52;99108.50;;;0.49;63.03
43298;BME280;28892;55.640;37.532;2023-01-27T12:25:24;99092.75;;;0.39;62.51
43298;BME280;28892;55.640;37.532;2023-01-27T12:27:56;99090.16;;;0.27;62.64
43298;BME280;28892;55.640;37.532;2023-01-27T12:30:26;99099.75;;;0.38;62.59
43298;BME280;28892;55.640;37.532;2023-01-27T12:32:53;99101.97;;;0.54;62.58
43298;BME280;28892;55.640;37.532;2023-01-27T12:35:22;99106.50;;;0.41;62.01
43298;BME280;28892;55.640;37.532;2023-01-27T12:37:54;99094.06;;;0.22;62.17
43298;BME280;28892;55.640;37.532;2023-01-27T12:40:23;99117.53;;;0.33;62.33
43298;BME280;28892;55.640;37.532;2023-01-27T12:43:07;99113.13;;;0.45;62.60
43298;BME280;28892;55.640;37.532;2023-01-27T12:45:35;99107.81;;;0.35;62.55
43298;BME280;28892;55.640;37.532;2023-01-27T12:50:40;99102.72;;;0.22;62.25
43298;BME280;28892;55.640;37.532;2023-01-27T12:53:23;99120.38;;;0.53;63.08
43298;BME280;28892;55.640;37.532;2023-01-27T12:56:16;99122.25;;;0.74;62.25
43298;BME280;28892;55.640;37.532;2023-01-27T12:58:45;99128.19;;;0.53;62.08
43298;BME280;28892;55.640;37.532;2023-01-27T13:01:31;99126.53;;;0.63;62.50
43298;BME280;28892;55.640;37.532;2023-01-27T13:06:45;99118.84;;;0.62;62.24
43298;BME280;28892;55.640;37.532;2023-01-27T13:09:32;99121.50;;;0.83;62.24
43298;BME280;28892;55.640;37.532;2023-01-27T13:13:13;99127.03;;;0.34;63.11
43298;BME280;28892;55.640;37.532;2023-01-27T13:16:00;99106.97;;;0.35;63.10
43298;BME280;28892;55.640;37.532;2023-01-27T13:18:35;99118.94;;;0.49;62.51
43298;BME280;28892;55.640;37.532;2023-01-27T13:21:15;99123.94;;;0.40;62.50
43298;BME280;28892;55.640;37.532;2023-01-27T13:23:42;99124.34;;;-0.11;63.37
43298;BME280;28892;55.640;37.532;2023-01-27T13:26:17;99127.94;;;-0.01;63.96
43298;BME280;28892;55.640;37.532;2023-01-27T13:29:18;99139.22;;;0.34;63.86
43298;BME280;28892;55.640;37.532;2023-01-27T13:31:57;99119.06;;;0.02;64.00
43298;BME280;28892;55.640;37.532;2023-01-27T13:34:49;99139.22;;;0.22;63.89
43298;BME280;28892;55.640;37.532;2023-01-27T13:45:19;99142.69;;;0.46;63.45
43298;BME280;28892;55.640;37.532;2023-01-27T13:47:59;99146.25;;;0.56;62.43
43298;BME280;28892;55.640;37.532;2023-01-27T13:50:32;99153.22;;;0.67;61.93
43298;BME280;28892;55.640;37.532;2023-01-27T13:53:00;99154.53;;;0.73;61.73
43298;BME280;28892;55.640;37.532;2023-01-27T14:06:29;99145.97;;;0.02;63.71
43298;BME280;28892;55.640;37.532;2023-01-27T14:11:46;99153.34;;;0.31;63.11
43298;BME280;28892;55.640;37.532;2023-01-27T14:17:33;99159.75;;;0.61;62.75
43298;BME280;28892;55.640;37.532;2023-01-27T14:26:27;99162.13;;;0.53;62.74
43298;BME280;28892;55.640;37.532;2023-01-27T14:50:40;99192.00;;;0.15;64.18
43298;BME280;28892;55.640;37.532;2023-01-27T15:02:00;99205.53;;;0.54;62.71
43298;BME280;28892;55.640;37.532;2023-01-27T15:26:11;99208.28;;;0.75;62.84
43298;BME280;28892;55.640;37.532;2023-01-27T15:28:40;99212.91;;;0.72;62.73
43298;BME280;28892;55.640;37.532;2023-01-27T15:34:19;99205.34;;;0.68;62.98
43298;BME280;28892;55.640;37.532;2023-01-27T15:37:11;99216.13;;;0.64;63.38
43298;BME280;28892;55.640;37.532;2023-01-27T15:40:12;99220.16;;;0.68;63.64
43298;BME280;28892;55.640;37.532;2023-01-27T15:50:42;99229.78;;;-0.03;65.36
43298;BME280;28892;55.640;37.532;2023-01-27T15:53:15;99221.41;;;0.17;64.81
43298;BME280;28892;55.640;37.532;2023-01-27T15:55:53;99226.75;;;0.26;64.31
43298;BME280;28892;55.640;37.532;2023-01-27T15:58:33;99227.34;;;0.30;64.68
43298;BME280;28892;55.640;37.532;2023-01-27T16:01:25;99232.38;;;0.56;63.92
43298;BME280;28892;55.640;37.532;2023-01-27T16:04:06;99231.63;;;0.43;63.71
43298;BME280;28892;55.640;37.532;2023-01-27T16:06:49;99234.13;;;0.44;64.14
43298;BME280;28892;55.640;37.532;2023-01-27T16:09:40;99237.69;;;0.32;64.18
43298;BME280;28892;55.640;37.532;2023-01-27T16:14:50;99231.84;;;0.17;64.43
43298;BME280;28892;55.640;37.532;2023-01-27T16:18:00;99235.81;;;-0.02;65.61
43298;BME280;28892;55.640;37.532;2023-01-27T16:20:55;99240.88;;;0.24;65.14
43298;BME280;28892;55.640;37.532;2023-01-27T16:24:23;99236.28;;;0.39;64.06
43298;BME280;28892;55.640;37.532;2023-01-27T16:30:33;99239.47;;;0.54;64.35